Time;durP1;ratioP1;P1;durP2;ratioP2;P2;SDS_P1;SDS_P2;PMS_P1;PMS_P2;Temp;Humidity;BMP_temperature;BMP_pressure;BME280_temperature;BME280_humidity;BME280_pressure;Samples;Min_cycle;Max_cycle;Signal;HPM_P1;HPM_P2
2021/07/23 00:00:41;;;;;;;55.80;53.08;;;25.00;43.60;;;;;;5055907;28;20033;-83
2021/07/23 00:03:07;;;;;;;54.17;51.58;;;25.00;43.70;;;;;;5055282;28;20073;-83
2021/07/23 00:05:33;;;;;;;53.58;51.00;;;25.00;43.80;;;;;;5054536;28;20045;-83
2021/07/23 00:07:59;;;;;;;51.80;49.35;;;24.90;43.80;;;;;;5019240;28;20033;-84
2021/07/23 00:10:25;;;;;;;52.40;49.90;;;24.90;43.90;;;;;;5058681;28;20470;-83
2021/07/23 00:12:51;;;;;;;54.00;51.13;;;24.90;44.00;;;;;;5056442;28;20039;-83
2021/07/23 00:15:17;;;;;;;52.05;49.25;;;24.90;44.10;;;;;;5037717;28;20466;-84
2021/07/23 00:17:44;;;;;;;51.55;49.10;;;24.90;44.10;;;;;;5056441;28;20505;-84
2021/07/23 00:20:10;;;;;;;51.05;48.55;;;24.90;44.10;;;;;;5052179;28;20029;-83
2021/07/23 00:22:37;;;;;;;53.58;50.97;;;24.90;44.00;;;;;;5058176;28;20017;-84
2021/07/23 00:25:04;;;;;;;53.42;50.88;;;24.90;44.10;;;;;;5037980;28;20059;-84
2021/07/23 00:27:30;;;;;;;53.38;50.88;;;24.90;44.20;;;;;;5037954;28;20047;-84
2021/07/23 00:29:56;;;;;;;50.55;47.95;;;24.90;44.30;;;;;;5055964;28;20055;-81
2021/07/23 00:32:22;;;;;;;47.70;45.40;;;24.80;44.40;;;;;;5051387;28;20045;-84
2021/07/23 00:34:48;;;;;;;46.47;44.28;;;24.80;44.50;;;;;;5055443;28;20028;-84
2021/07/23 00:37:14;;;;;;;46.42;44.13;;;24.70;44.50;;;;;;5053784;28;20029;-84
2021/07/23 00:39:41;;;;;;;46.90;44.30;;;24.80;45.10;;;;;;5055922;28;20040;-83
2021/07/23 00:42:07;;;;;;;43.97;41.90;;;24.80;44.50;;;;;;5054613;28;20063;-84
2021/07/23 00:44:33;;;;;;;44.58;42.38;;;24.80;44.50;;;;;;5036273;28;20473;-83
2021/07/23 00:46:59;;;;;;;44.47;42.33;;;24.80;44.40;;;;;;5034559;28;20033;-84
2021/07/23 00:49:25;;;;;;;43.47;41.38;;;24.90;44.50;;;;;;5040207;28;20025;-83
2021/07/23 00:51:51;;;;;;;44.25;42.17;;;24.80;44.50;;;;;;5055623;28;20033;-83
2021/07/23 00:54:18;;;;;;;43.20;40.97;;;24.80;44.60;;;;;;5021662;28;20025;-83
2021/07/23 00:56:45;;;;;;;42.72;40.63;;;24.80;44.60;;;;;;5055784;28;20385;-84
2021/07/23 00:59:11;;;;;;;43.60;41.50;;;24.90;44.70;;;;;;5051057;28;20029;-83
2021/07/23 01:01:37;;;;;;;42.80;40.80;;;24.90;44.70;;;;;;5064178;28;20036;-84
2021/07/23 01:04:03;;;;;;;43.95;41.85;;;24.90;44.80;;;;;;5038199;28;20086;-83
2021/07/23 01:06:30;;;;;;;44.50;42.33;;;24.80;44.80;;;;;;5037816;28;20041;-83
2021/07/23 01:08:56;;;;;;;42.80;40.72;;;24.90;44.90;;;;;;5055610;28;20381;-84
2021/07/23 01:11:23;;;;;;;42.75;40.58;;;24.80;44.90;;;;;;5051119;28;20037;-83
2021/07/23 01:13:49;;;;;;;44.60;42.50;;;24.80;45.00;;;;;;5037091;28;20025;-84
2021/07/23 01:16:16;;;;;;;44.92;42.78;;;24.70;45.20;;;;;;5053847;28;20033;-84
2021/07/23 01:18:42;;;;;;;42.47;40.47;;;24.60;45.20;;;;;;5055942;28;20025;-83
2021/07/23 01:21:08;;;;;;;41.45;39.30;;;24.60;45.40;;;;;;5036288;28;20028;-83
2021/07/23 01:23:35;;;;;;;41.70;39.70;;;24.60;45.50;;;;;;5020130;28;20059;-83
2021/07/23 01:26:04;;;;;;;43.88;41.80;;;24.50;45.50;;;;;;5034027;28;20045;-83
2021/07/23 01:28:32;;;;;;;40.53;38.63;;;24.50;45.60;;;;;;5049367;28;20029;-84
2021/07/23 01:30:58;;;;;;;41.78;39.80;;;24.50;45.70;;;;;;5021713;28;20049;-84
2021/07/23 01:33:25;;;;;;;40.17;38.28;;;24.40;45.70;;;;;;5037034;28;20029;-85
2021/07/23 01:35:51;;;;;;;40.63;38.70;;;24.40;45.80;;;;;;5037731;28;20027;-83
2021/07/23 01:38:17;;;;;;;42.40;40.30;;;24.40;45.90;;;;;;5033742;28;20036;-84
2021/07/23 01:40:44;;;;;;;40.75;38.85;;;24.30;45.90;;;;;;5020394;28;20059;-83
2021/07/23 01:43:10;;;;;;;42.72;40.67;;;24.30;46.00;;;;;;5053049;28;20025;-84
2021/07/23 01:45:36;;;;;;;41.72;39.75;;;24.30;46.10;;;;;;5054418;28;20059;-85
2021/07/23 01:48:03;;;;;;;41.22;39.22;;;24.30;46.20;;;;;;5037062;28;20025;-83
2021/07/23 01:50:29;;;;;;;41.35;39.05;;;24.20;46.20;;;;;;5050685;28;20517;-83
2021/07/23 01:52:55;;;;;;;40.97;39.08;;;24.10;46.30;;;;;;5051703;28;20048;-84
2021/07/23 01:55:21;;;;;;;39.45;37.63;;;24.10;46.40;;;;;;5038460;28;20044;-84
2021/07/23 01:57:47;;;;;;;40.65;38.65;;;24.10;46.60;;;;;;5036272;28;20489;-83
2021/07/23 02:00:14;;;;;;;40.65;38.75;;;24.10;46.70;;;;;;5035224;28;20021;-83
2021/07/23 02:02:40;;;;;;;39.47;37.47;;;24.00;46.70;;;;;;5027131;28;20478;-83
2021/07/23 02:05:06;;;;;;;39.20;37.20;;;24.00;46.90;;;;;;5041429;28;20049;-85
2021/07/23 02:07:32;;;;;;;38.03;36.22;;;24.00;46.90;;;;;;5049380;28;20514;-84
2021/07/23 02:10:00;;;;;;;38.60;36.80;;;23.90;46.90;;;;;;5028473;28;20033;-83
2021/07/23 02:12:26;;;;;;;37.38;35.35;;;23.90;47.10;;;;;;5047151;28;20028;-82
2021/07/23 02:14:52;;;;;;;37.85;36.05;;;23.90;47.20;;;;;;5045803;28;20092;-84
2021/07/23 02:17:18;;;;;;;40.72;38.13;;;23.80;47.30;;;;;;5046439;28;20030;-84
2021/07/23 02:19:44;;;;;;;37.03;34.92;;;23.80;47.40;;;;;;5032204;28;20040;-84
2021/07/23 02:22:10;;;;;;;37.78;35.97;;;23.80;47.50;;;;;;5047820;28;20025;-83
2021/07/23 02:24:37;;;;;;;36.40;34.60;;;23.80;47.50;;;;;;5028905;28;20041;-84
2021/07/23 02:27:03;;;;;;;37.17;35.38;;;23.70;47.70;;;;;;5029318;28;20033;-85
2021/07/23 02:29:29;;;;;;;36.58;34.70;;;23.70;47.70;;;;;;5046917;28;20030;-85
2021/07/23 02:31:55;;;;;;;35.40;33.70;;;23.70;47.90;;;;;;5030557;28;20418;-84
2021/07/23 02:34:22;;;;;;;35.83;34.13;;;23.60;48.00;;;;;;5048065;28;20025;-84
2021/07/23 02:36:48;;;;;;;34.95;33.17;;;23.60;48.10;;;;;;5029554;28;20033;-84
2021/07/23 02:39:14;;;;;;;34.50;32.90;;;23.60;48.10;;;;;;5052640;28;20383;-85
2021/07/23 02:41:40;;;;;;;35.55;33.75;;;23.60;48.30;;;;;;5036330;28;20039;-84
2021/07/23 02:44:07;;;;;;;36.80;35.08;;;23.60;48.30;;;;;;5050360;28;20397;-83
2021/07/23 02:46:33;;;;;;;35.95;34.22;;;23.50;48.50;;;;;;5055617;28;20052;-85
2021/07/23 02:48:59;;;;;;;36.33;34.58;;;23.50;48.60;;;;;;5054337;28;20397;-84
2021/07/23 02:51:25;;;;;;;38.33;36.38;;;23.50;48.70;;;;;;5036678;28;20390;-85
2021/07/23 02:53:51;;;;;;;36.80;35.08;;;23.40;48.80;;;;;;5053859;28;20012;-83
2021/07/23 02:56:17;;;;;;;37.75;35.65;;;23.40;48.80;;;;;;5032725;28;20063;-84
2021/07/23 02:58:46;;;;;;;37.95;35.95;;;23.30;49.00;;;;;;5037196;28;20032;-83
2021/07/23 03:01:12;;;;;;;36.22;34.50;;;23.30;49.70;;;;;;5053584;28;20490;-84
2021/07/23 03:03:38;;;;;;;37.40;35.60;;;23.30;49.20;;;;;;5036173;28;20048;-84
2021/07/23 03:06:04;;;;;;;37.60;35.67;;;23.30;49.20;;;;;;5054080;28;20406;-83
2021/07/23 03:08:30;;;;;;;37.65;35.80;;;23.30;49.40;;;;;;5052536;28;20021;-84
2021/07/23 03:10:57;;;;;;;37.90;36.10;;;23.20;49.50;;;;;;5037463;28;20032;-82
2021/07/23 03:13:23;;;;;;;37.78;35.97;;;23.10;49.60;;;;;;5059653;28;20025;-83
2021/07/23 03:15:49;;;;;;;37.78;35.90;;;23.20;49.70;;;;;;5055677;28;20044;-83
2021/07/23 03:18:17;;;;;;;37.78;35.97;;;23.10;49.80;;;;;;5057575;28;20032;-83
2021/07/23 03:20:43;;;;;;;36.97;35.17;;;23.10;49.90;;;;;;5023035;28;20037;-84
2021/07/23 03:23:09;;;;;;;36.72;34.72;;;23.20;50.00;;;;;;5052946;28;20048;-84
2021/07/23 03:25:36;;;;;;;36.65;34.85;;;23.10;49.90;;;;;;5041629;28;20053;-83
2021/07/23 03:28:02;;;;;;;36.78;34.97;;;23.10;49.80;;;;;;5057228;28;20033;-83
2021/07/23 03:30:28;;;;;;;36.85;35.10;;;23.10;49.90;;;;;;5056767;28;20486;-83
2021/07/23 03:32:54;;;;;;;36.05;34.25;;;23.10;50.00;;;;;;5057265;28;20043;-84
2021/07/23 03:35:20;;;;;;;36.13;34.42;;;23.10;50.10;;;;;;5054125;28;20050;-83
2021/07/23 03:37:47;;;;;;;37.00;35.03;;;23.00;50.10;;;;;;5022594;28;20033;-83
2021/07/23 03:40:13;;;;;;;36.15;34.45;;;23.00;50.20;;;;;;5057915;28;20021;-83
2021/07/23 03:42:39;;;;;;;36.90;35.15;;;23.00;50.20;;;;;;5057154;28;20029;-84
2021/07/23 03:45:05;;;;;;;36.25;34.55;;;23.00;50.20;;;;;;5056662;28;20037;-83
2021/07/23 03:47:31;;;;;;;37.45;35.63;;;23.00;50.20;;;;;;5053814;28;20034;-83
2021/07/23 03:49:57;;;;;;;36.63;34.90;;;23.00;50.30;;;;;;5054296;28;20017;-84
2021/07/23 03:52:23;;;;;;;37.55;35.75;;;23.00;50.20;;;;;;5058734;28;20397;-84
2021/07/23 03:54:49;;;;;;;37.25;35.45;;;23.00;50.30;;;;;;5055423;28;20025;-83
2021/07/23 03:57:15;;;;;;;38.55;36.42;;;23.00;50.30;;;;;;5038982;28;20432;-83
2021/07/23 03:59:42;;;;;;;36.17;34.47;;;23.00;50.30;;;;;;5038785;28;20025;-85
2021/07/23 04:02:08;;;;;;;36.33;34.55;;;23.00;50.30;;;;;;5052056;28;20041;-84
2021/07/23 04:04:34;;;;;;;36.47;34.67;;;23.00;50.40;;;;;;5058701;28;20032;-83
2021/07/23 04:07:00;;;;;;;38.38;36.58;;;22.90;50.40;;;;;;5055114;28;20366;-82
2021/07/23 04:09:27;;;;;;;38.03;36.22;;;22.90;50.50;;;;;;5056521;28;20032;-84
2021/07/23 04:11:53;;;;;;;37.88;36.03;;;22.90;50.50;;;;;;5022388;28;20036;-84
2021/07/23 04:14:23;;;;;;;36.08;34.38;;;22.90;50.60;;;;;;5052629;28;20188;-83
2021/07/23 04:16:49;;;;;;;34.00;32.40;;;22.80;50.60;;;;;;5038002;28;20029;-84
2021/07/23 04:19:15;;;;;;;36.50;34.70;;;22.80;50.60;;;;;;5057036;28;20036;-83
2021/07/23 04:21:41;;;;;;;35.03;33.33;;;22.80;50.70;;;;;;5038361;28;20033;-82
2021/07/23 04:24:08;;;;;;;34.58;32.97;;;22.80;50.70;;;;;;5038668;28;20029;-84
2021/07/23 04:26:34;;;;;;;35.08;33.28;;;22.80;50.80;;;;;;5053243;28;20040;-83
2021/07/23 04:29:00;;;;;;;34.22;32.17;;;22.80;50.90;;;;;;5018497;28;20029;-84
2021/07/23 04:31:26;;;;;;;33.63;32.03;;;22.80;50.90;;;;;;5057636;28;20441;-83
2021/07/23 04:33:55;;;;;;;34.80;33.00;;;22.70;50.90;;;;;;5024401;28;20049;-84
2021/07/23 04:36:21;;;;;;;32.67;31.17;;;22.70;51.00;;;;;;5055774;28;20029;-84
2021/07/23 04:38:47;;;;;;;33.97;32.38;;;22.70;51.00;;;;;;5056058;28;20044;-82
2021/07/23 04:41:13;;;;;;;32.17;30.48;;;22.70;51.20;;;;;;5051709;28;20026;-84
2021/07/23 04:43:40;;;;;;;32.45;30.92;;;22.70;51.20;;;;;;5023631;28;20036;-84
2021/07/23 04:46:06;;;;;;;31.90;30.40;;;22.70;51.30;;;;;;5054852;28;20045;-84
2021/07/23 04:48:35;;;;;;;31.65;30.15;;;22.60;51.40;;;;;;5038285;28;20032;-84
2021/07/23 04:51:02;;;;;;;31.75;29.75;;;22.60;51.50;;;;;;5055518;28;20024;-84
2021/07/23 04:53:28;;;;;;;32.05;30.27;;;22.60;51.60;;;;;;5019616;28;20039;-85
2021/07/23 04:55:58;;;;;;;32.53;30.88;;;22.60;51.60;;;;;;5035417;28;20041;-83
2021/07/23 04:58:24;;;;;;;31.45;29.95;;;22.50;51.60;;;;;;5054572;28;20037;-85
2021/07/23 05:00:53;;;;;;;32.05;30.27;;;22.50;51.60;;;;;;5055223;28;20044;-84
2021/07/23 05:03:20;;;;;;;31.17;29.67;;;22.50;51.70;;;;;;5055674;28;20025;-84
2021/07/23 05:05:46;;;;;;;31.33;29.83;;;22.50;51.90;;;;;;5053579;28;20036;-84
2021/07/23 05:08:13;;;;;;;32.03;30.13;;;22.50;52.10;;;;;;5017196;28;20485;-85
2021/07/23 05:10:43;;;;;;;32.13;30.38;;;22.50;52.10;;;;;;5057092;28;20036;-84
2021/07/23 05:13:09;;;;;;;32.83;31.00;;;22.50;52.20;;;;;;5037761;28;20048;-84
2021/07/23 05:15:40;;;;;;;31.17;29.73;;;22.50;52.20;;;;;;5037359;28;20037;-83
2021/07/23 05:18:06;;;;;;;31.83;30.33;;;22.50;52.30;;;;;;5021422;28;20036;-84
2021/07/23 05:20:32;;;;;;;32.35;30.85;;;22.50;52.50;;;;;;5019779;28;20040;-85
2021/07/23 05:22:58;;;;;;;30.95;29.55;;;22.40;52.50;;;;;;5052712;28;20144;-84
2021/07/23 05:25:25;;;;;;;31.00;29.50;;;22.40;52.70;;;;;;5035558;28;20033;-84
2021/07/23 05:27:51;;;;;;;30.88;29.38;;;22.40;52.70;;;;;;5037400;28;20048;-84
2021/07/23 05:30:17;;;;;;;30.38;28.98;;;22.40;52.90;;;;;;5054504;28;20032;-83
2021/07/23 05:32:43;;;;;;;33.17;31.60;;;22.40;53.00;;;;;;5053947;28;20059;-84
2021/07/23 05:35:09;;;;;;;32.10;30.60;;;22.40;53.10;;;;;;5033333;28;20032;-83
2021/07/23 05:37:35;;;;;;;31.00;29.52;;;22.40;53.10;;;;;;5057011;28;20373;-84
2021/07/23 05:40:01;;;;;;;30.63;29.23;;;22.40;53.00;;;;;;5037117;28;20033;-84
2021/07/23 05:42:27;;;;;;;33.72;31.90;;;22.50;53.00;;;;;;5037262;28;20036;-84
2021/07/23 05:44:54;;;;;;;32.05;30.55;;;22.60;52.90;;;;;;5053713;28;20031;-84
2021/07/23 05:47:20;;;;;;;32.70;31.20;;;22.70;52.80;;;;;;5050792;28;20041;-85
2021/07/23 05:49:46;;;;;;;33.78;32.08;;;22.80;52.90;;;;;;5037035;28;20474;-85
2021/07/23 05:52:12;;;;;;;35.25;33.40;;;22.80;52.80;;;;;;5054203;28;20032;-84
2021/07/23 05:54:38;;;;;;;33.00;31.50;;;22.90;52.70;;;;;;5054766;28;20059;-84
2021/07/23 05:57:04;;;;;;;34.42;32.63;;;22.90;52.70;;;;;;5054890;28;20045;-84
2021/07/23 05:59:32;;;;;;;36.08;34.28;;;23.00;52.80;;;;;;5034987;28;20045;-85
2021/07/23 06:01:58;;;;;;;36.00;32.47;;;23.00;52.90;;;;;;5050448;28;20041;-86
2021/07/23 06:04:24;;;;;;;36.13;34.22;;;23.00;53.00;;;;;;5055861;28;20032;-84
2021/07/23 06:06:50;;;;;;;34.50;32.90;;;23.00;53.00;;;;;;5037018;28;20056;-84
2021/07/23 06:09:16;;;;;;;35.28;33.45;;;23.10;52.90;;;;;;5037172;28;20033;-83
2021/07/23 06:11:42;;;;;;;37.53;35.70;;;23.20;52.90;;;;;;5054551;28;20512;-84
2021/07/23 06:14:08;;;;;;;37.20;35.40;;;23.20;52.90;;;;;;5032721;28;20040;-84
2021/07/23 06:16:35;;;;;;;35.95;34.15;;;23.20;53.00;;;;;;5054654;28;20505;-84
2021/07/23 06:19:01;;;;;;;36.47;34.17;;;23.30;52.90;;;;;;5036847;28;20033;-84
2021/07/23 06:21:27;;;;;;;36.50;34.60;;;23.30;52.90;;;;;;5054807;28;20048;-83
2021/07/23 06:23:53;;;;;;;36.50;34.60;;;23.30;52.90;;;;;;5035614;28;20029;-84
2021/07/23 06:26:19;;;;;;;37.70;35.75;;;23.30;52.90;;;;;;5050255;28;20048;-84
2021/07/23 06:28:45;;;;;;;37.45;35.58;;;23.30;53.00;;;;;;5020806;28;20032;-84
2021/07/23 06:31:14;;;;;;;35.83;34.15;;;23.30;53.00;;;;;;5052767;28;20056;-84
2021/07/23 06:33:40;;;;;;;36.47;34.78;;;23.30;53.10;;;;;;5054507;28;20032;-87
2021/07/23 06:36:07;;;;;;;37.22;35.45;;;23.30;53.20;;;;;;5036663;28;20031;-85
2021/07/23 06:38:33;;;;;;;37.30;35.13;;;23.30;53.30;;;;;;5052779;28;20040;-83
2021/07/23 06:40:59;;;;;;;37.10;35.10;;;23.30;53.20;;;;;;5034100;28;20041;-83
2021/07/23 06:43:28;;;;;;;37.78;35.97;;;23.40;53.20;;;;;;5055322;28;20363;-84
2021/07/23 06:45:56;;;;;;;36.47;34.72;;;23.50;53.00;;;;;;5057367;28;20037;-84
2021/07/23 06:48:22;;;;;;;38.08;36.30;;;23.50;52.80;;;;;;5024136;28;20021;-84
2021/07/23 06:50:51;;;;;;;35.88;34.17;;;23.70;52.70;;;;;;5057922;28;20481;-85
2021/07/23 06:53:17;;;;;;;42.50;39.80;;;23.80;52.60;;;;;;5036548;28;20437;-84
2021/07/23 06:55:43;;;;;;;40.30;38.40;;;23.90;52.40;;;;;;5058903;28;20367;-84
2021/07/23 06:58:10;;;;;;;38.45;36.65;;;24.00;52.30;;;;;;5055530;28;20391;-84
2021/07/23 07:00:36;;;;;;;44.47;42.38;;;24.20;52.20;;;;;;5057074;28;20037;-84
2021/07/23 07:03:03;;;;;;;47.20;44.97;;;24.30;52.00;;;;;;5056444;28;20484;-85
2021/07/23 07:05:29;;;;;;;45.63;43.42;;;24.40;52.00;;;;;;5054964;28;20041;-84
2021/07/23 07:07:57;;;;;;;45.05;42.85;;;24.40;52.10;;;;;;5056369;28;20033;-84
2021/07/23 07:10:23;;;;;;;43.83;41.72;;;24.40;52.10;;;;;;5040423;28;20451;-84
2021/07/23 07:12:55;;;;;;;52.35;49.85;;;24.40;52.20;;;;;;5057681;28;20039;-84
2021/07/23 07:15:21;;;;;;;38.70;36.80;;;24.30;52.30;;;;;;5056135;28;20040;-85
2021/07/23 07:17:47;;;;;;;38.08;36.20;;;24.20;52.50;;;;;;5057727;28;20027;-85
2021/07/23 07:20:13;;;;;;;36.58;34.78;;;24.10;52.60;;;;;;5035564;28;20026;-85
2021/07/23 07:22:42;;;;;;;35.78;34.08;;;24.10;52.80;;;;;;5041560;28;20032;-85
2021/07/23 07:25:09;;;;;;;35.60;33.90;;;24.10;52.90;;;;;;5040515;28;20040;-84
2021/07/23 07:27:35;;;;;;;37.50;35.72;;;24.10;52.90;;;;;;5056582;28;20064;-84
2021/07/23 07:30:01;;;;;;;35.03;33.33;;;24.10;53.10;;;;;;5056358;28;20028;-84
2021/07/23 07:32:27;;;;;;;36.67;34.95;;;24.00;53.20;;;;;;5036104;28;20124;-84
2021/07/23 07:34:53;;;;;;;37.83;36.03;;;24.00;53.30;;;;;;5055717;28;20032;-84
2021/07/23 07:37:19;;;;;;;38.17;36.33;;;23.90;53.40;;;;;;5055418;28;20043;-84
2021/07/23 07:39:45;;;;;;;37.85;36.00;;;23.90;53.50;;;;;;5039524;28;20587;-83
2021/07/23 07:42:12;;;;;;;37.40;35.65;;;23.90;53.60;;;;;;5055793;28;20029;-83
2021/07/23 07:44:38;;;;;;;36.55;34.85;;;23.90;53.60;;;;;;5037506;28;20047;-85
2021/07/23 07:47:04;;;;;;;35.97;34.28;;;24.00;53.70;;;;;;5052760;28;20044;-84
2021/07/23 07:49:30;;;;;;;36.38;34.65;;;24.00;53.60;;;;;;5056733;28;20029;-85
2021/07/23 07:51:56;;;;;;;37.58;35.78;;;24.10;53.50;;;;;;5057147;28;20032;-85
2021/07/23 07:54:22;;;;;;;40.88;38.85;;;24.20;53.40;;;;;;5056276;28;20025;-84
2021/07/23 07:56:51;;;;;;;42.53;40.53;;;24.30;53.20;;;;;;5056781;28;20504;-83
2021/07/23 07:59:17;;;;;;;43.60;41.42;;;24.40;53.20;;;;;;5035387;28;20394;-85
2021/07/23 08:01:43;;;;;;;43.03;40.95;;;24.40;53.10;;;;;;5057275;28;20060;-83
2021/07/23 08:04:09;;;;;;;43.88;41.45;;;24.50;53.10;;;;;;5039334;28;20044;-84
2021/07/23 08:06:38;;;;;;;52.30;49.72;;;24.60;53.00;;;;;;5056629;28;20044;-84
2021/07/23 08:09:05;;;;;;;43.10;40.90;;;24.70;53.00;;;;;;5039449;28;20020;-84
2021/07/23 08:11:32;;;;;;;45.85;43.65;;;24.70;52.90;;;;;;5054881;28;20029;-84
2021/07/23 08:13:59;;;;;;;41.15;39.05;;;24.70;52.90;;;;;;5002543;28;20532;-86
2021/07/23 08:16:25;;;;;;;40.97;38.88;;;24.60;53.00;;;;;;5057952;28;20033;-85
2021/07/23 08:18:51;;;;;;;42.30;40.13;;;24.60;53.10;;;;;;5038662;28;20021;-84
2021/07/23 08:21:17;;;;;;;41.60;39.60;;;24.70;53.10;;;;;;5037323;28;20032;-84
2021/07/23 08:23:43;;;;;;;41.95;39.85;;;24.70;53.10;;;;;;5038715;28;20461;-84
2021/07/23 08:26:09;;;;;;;51.10;48.60;;;24.70;53.00;;;;;;5051038;28;20044;-85
2021/07/23 08:28:36;;;;;;;50.33;47.55;;;24.70;52.90;;;;;;5056439;28;20033;-85
2021/07/23 08:31:02;;;;;;;41.75;39.65;;;24.80;52.90;;;;;;5055571;28;20406;-85
2021/07/23 08:33:28;;;;;;;45.22;42.88;;;24.80;52.90;;;;;;5022098;28;20045;-84
2021/07/23 08:35:54;;;;;;;45.03;42.75;;;24.90;52.90;;;;;;5056094;28;20031;-84
2021/07/23 08:38:20;;;;;;;45.30;43.17;;;25.10;52.70;;;;;;5052836;28;20036;-84
2021/07/23 08:40:46;;;;;;;43.72;41.33;;;25.30;52.50;;;;;;5056062;28;20477;-84
2021/07/23 08:43:12;;;;;;;43.28;41.22;;;25.40;52.30;;;;;;5056427;28;20043;-83
2021/07/23 08:45:39;;;;;;;40.03;38.15;;;25.50;52.30;;;;;;5055480;28;20059;-83
2021/07/23 08:48:05;;;;;;;42.67;40.55;;;25.50;52.10;;;;;;5038144;28;20037;-85
2021/07/23 08:50:31;;;;;;;41.38;39.42;;;25.70;52.00;;;;;;5054085;28;20033;-84
2021/07/23 08:52:58;;;;;;;46.80;44.58;;;25.80;51.80;;;;;;5053103;28;20461;-84
2021/07/23 08:55:24;;;;;;;46.63;44.40;;;25.80;51.60;;;;;;5040106;28;20029;-84
2021/07/23 08:57:51;;;;;;;48.47;46.08;;;25.90;51.60;;;;;;5037374;28;20060;-84
2021/07/23 09:00:19;;;;;;;55.45;52.80;;;26.00;51.50;;;;;;5019302;28;20033;-84
2021/07/23 09:02:57;;;;;;;63.53;60.47;;;26.10;51.40;;;;;;5055663;28;20024;-83
2021/07/23 09:05:33;;;;;;;54.22;51.63;;;26.10;51.30;;;;;;5036598;28;20045;-86
2021/07/23 09:08:11;;;;;;;57.50;52.92;;;26.20;51.20;;;;;;5052518;28;20393;-84
2021/07/23 09:10:37;;;;;;;49.22;46.92;;;26.30;51.10;;;;;;5039560;28;20033;-85
2021/07/23 09:13:05;;;;;;;52.97;50.45;;;26.30;51.00;;;;;;5055469;28;20393;-84
2021/07/23 09:15:44;;;;;;;52.20;49.70;;;26.30;51.00;;;;;;5037127;28;20397;-84
2021/07/23 09:18:20;;;;;;;67.78;64.55;;;26.40;51.00;;;;;;5036910;28;20032;-83
2021/07/23 09:21:05;;;;;;;63.22;59.92;;;26.40;50.90;;;;;;5054571;28;20044;-84
2021/07/23 09:23:38;;;;;;;63.33;59.38;;;26.50;50.80;;;;;;5036826;28;20024;-84
2021/07/23 09:26:07;;;;;;;64.47;61.38;;;26.60;50.60;;;;;;5033428;28;20030;-84
2021/07/23 09:28:46;;;;;;;61.38;58.38;;;26.80;50.30;;;;;;5057067;28;20508;-85
2021/07/23 09:31:23;;;;;;;64.22;61.20;;;27.00;50.20;;;;;;5035720;28;20409;-85
2021/07/23 09:33:55;;;;;;;72.20;68.78;;;27.10;50.00;;;;;;5055101;28;20029;-83
2021/07/23 09:36:22;;;;;;;68.38;65.18;;;27.20;49.80;;;;;;5037450;28;20095;-84
2021/07/23 09:38:49;;;;;;;64.35;61.25;;;27.40;49.50;;;;;;5053499;28;20028;-84
2021/07/23 09:41:24;;;;;;;62.55;59.55;;;27.70;49.30;;;;;;5032905;28;20021;-84
2021/07/23 09:44:02;;;;;;;62.42;59.35;;;28.00;48.80;;;;;;5054042;28;20021;-84
2021/07/23 09:46:35;;;;;;;57.90;55.15;;;28.30;48.60;;;;;;5055084;28;20033;-84
2021/07/23 09:49:21;;;;;;;58.67;55.78;;;28.40;48.20;;;;;;5037555;28;20033;-85
2021/07/23 09:51:50;;;;;;;61.35;58.15;;;28.50;48.00;;;;;;5037281;28;20386;-84
2021/07/23 09:54:18;;;;;;;73.03;69.53;;;28.60;47.70;;;;;;5037263;28;20033;-85
2021/07/23 09:56:45;;;;;;;63.30;60.30;;;28.70;47.40;;;;;;5021019;28;20031;-84
2021/07/23 09:59:40;;;;;;;62.55;59.55;;;28.70;47.00;;;;;;5017375;28;20033;-85
2021/07/23 10:02:10;;;;;;;157.30;148.52;;;28.80;46.80;;;;;;5050530;28;20033;-84
2021/07/23 10:05:01;;;;;;;111.55;105.93;;;28.90;46.50;;;;;;5055885;28;20370;-85
2021/07/23 10:07:46;;;;;;;76.65;72.95;;;29.10;46.20;;;;;;5053890;28;20045;-84
2021/07/23 10:10:13;;;;;;;82.90;78.85;;;29.20;45.90;;;;;;5038222;28;20032;-83
2021/07/23 10:12:41;;;;;;;100.13;95.05;;;29.10;45.90;;;;;;5020968;28;20033;-83
2021/07/23 10:15:07;;;;;;;84.45;80.38;;;29.00;45.90;;;;;;5020204;28;20029;-85
2021/07/23 10:17:34;;;;;;;70.07;66.32;;;28.90;45.90;;;;;;5034551;28;20047;-84
2021/07/23 10:20:01;;;;;;;63.75;60.70;;;28.70;46.10;;;;;;5054861;28;20040;-85
2021/07/23 10:22:28;;;;;;;70.95;67.55;;;28.60;46.20;;;;;;5042982;28;20029;-85
2021/07/23 10:24:54;;;;;;;77.85;74.07;;;28.50;46.30;;;;;;5039307;28;20036;-83
2021/07/23 10:27:22;;;;;;;66.28;63.08;;;28.50;46.50;;;;;;5009772;28;20041;-86
2021/07/23 10:29:49;;;;;;;68.50;65.20;;;28.40;46.50;;;;;;5024566;28;20021;-85
2021/07/23 10:32:36;;;;;;;106.30;100.97;;;28.30;46.60;;;;;;5019501;28;20058;-84
2021/07/23 10:35:17;;;;;;;98.78;94.00;;;28.30;46.70;;;;;;5021045;28;20029;-84
2021/07/23 10:37:43;;;;;;;86.32;81.68;;;28.20;46.70;;;;;;5068133;28;20385;-85
2021/07/23 10:40:09;;;;;;;69.22;65.93;;;28.20;46.90;;;;;;5057751;28;20048;-85
2021/07/23 10:42:36;;;;;;;72.00;68.55;;;28.20;46.90;;;;;;5040194;28;20037;-85
2021/07/23 10:45:03;;;;;;;101.70;96.70;;;28.20;46.90;;;;;;5023708;28;20016;-83
2021/07/23 10:47:39;;;;;;;71.28;67.72;;;28.30;47.10;;;;;;5055921;28;20050;-84
2021/07/23 10:50:07;;;;;;;73.50;69.97;;;28.30;46.80;;;;;;5020631;28;20036;-84
2021/07/23 10:52:36;;;;;;;120.00;113.88;;;28.40;46.70;;;;;;5058864;28;20036;-83
2021/07/23 10:55:22;;;;;;;67.28;64.03;;;28.50;46.60;;;;;;5058136;28;20017;-84
2021/07/23 10:58:09;;;;;;;79.85;75.93;;;28.70;46.30;;;;;;5040456;28;20025;-84
2021/07/23 11:01:02;;;;;;;67.82;64.57;;;29.10;45.90;;;;;;5057451;28;20052;-84
2021/07/23 11:03:39;;;;;;;74.72;71.22;;;29.30;45.50;;;;;;5040158;28;20020;-85
2021/07/23 11:06:14;;;;;;;73.15;69.40;;;29.50;45.30;;;;;;5057879;28;20037;-84
2021/07/23 11:08:51;;;;;;;84.88;80.78;;;29.70;45.20;;;;;;5057144;28;20485;-84
2021/07/23 11:11:18;;;;;;;110.93;105.28;;;29.90;45.00;;;;;;5039040;28;20025;-84
2021/07/23 11:13:44;;;;;;;73.00;69.50;;;29.90;44.60;;;;;;5058654;28;20032;-85
2021/07/23 11:16:11;;;;;;;76.55;72.90;;;30.00;44.60;;;;;;5059963;28;20044;-85
2021/07/23 11:18:52;;;;;;;87.32;83.13;;;29.90;44.60;;;;;;5060013;28;20032;-85
2021/07/23 11:21:18;;;;;;;92.13;87.75;;;29.80;44.50;;;;;;5060645;28;20025;-85
2021/07/23 11:23:46;;;;;;;83.57;79.60;;;29.70;44.70;;;;;;5025663;28;20020;-84
2021/07/23 11:26:13;;;;;;;86.28;82.18;;;29.60;44.80;;;;;;5021750;28;20032;-84
2021/07/23 11:28:49;;;;;;;92.38;87.75;;;29.60;44.90;;;;;;5071569;28;20052;-85
2021/07/23 11:31:36;;;;;;;88.70;84.45;;;29.60;45.00;;;;;;5040813;28;20391;-84
2021/07/23 11:34:22;;;;;;;83.60;79.43;;;29.50;44.90;;;;;;5023571;28;20029;-84
2021/07/23 11:36:49;;;;;;;94.53;90.00;;;29.50;45.00;;;;;;5054639;28;20493;-84
2021/07/23 11:39:15;;;;;;;89.88;85.50;;;29.50;45.10;;;;;;5038758;28;20045;-86
2021/07/23 11:42:00;;;;;;;81.57;77.70;;;29.50;45.10;;;;;;5055465;28;20016;-84
2021/07/23 11:44:27;;;;;;;71.13;67.60;;;29.40;45.30;;;;;;5022092;28;20040;-85
2021/07/23 11:46:53;;;;;;;79.20;75.32;;;29.30;45.40;;;;;;5020401;28;20052;-84
2021/07/23 11:49:19;;;;;;;73.05;69.55;;;29.20;45.40;;;;;;5055119;28;20036;-85
2021/07/23 11:51:47;;;;;;;73.45;69.88;;;29.10;45.50;;;;;;5022455;28;20025;-84
2021/07/23 11:54:19;;;;;;;72.45;68.97;;;29.10;45.70;;;;;;5038939;28;20037;-85
2021/07/23 11:56:46;;;;;;;75.63;72.03;;;29.00;45.70;;;;;;5056890;28;20025;-84
2021/07/23 11:59:12;;;;;;;83.03;79.05;;;29.00;45.70;;;;;;5035001;28;20022;-84
2021/07/23 12:01:39;;;;;;;72.13;68.72;;;29.10;45.70;;;;;;5040815;28;20037;-84
2021/07/23 12:04:06;;;;;;;63.97;60.83;;;29.20;45.80;;;;;;5021050;28;20469;-84
2021/07/23 12:06:32;;;;;;;65.35;61.95;;;29.20;45.70;;;;;;5022452;28;20028;-84
2021/07/23 12:09:02;;;;;;;67.93;64.63;;;29.20;45.60;;;;;;5056627;28;20028;-84
2021/07/23 12:11:31;;;;;;;71.17;67.77;;;29.20;45.60;;;;;;5053945;28;20052;-84
2021/07/23 12:13:58;;;;;;;68.72;65.40;;;29.20;45.60;;;;;;5020448;28;20029;-84
2021/07/23 12:16:25;;;;;;;84.57;80.47;;;29.20;45.60;;;;;;5055534;28;20394;-84
2021/07/23 12:18:58;;;;;;;64.65;61.55;;;29.30;45.70;;;;;;5038322;28;20025;-84
2021/07/23 12:21:25;;;;;;;69.65;66.32;;;29.50;45.60;;;;;;5037519;28;20024;-85
2021/07/23 12:24:02;;;;;;;69.85;66.38;;;29.70;45.50;;;;;;5056557;28;20017;-84
2021/07/23 12:26:29;;;;;;;69.00;65.68;;;29.80;45.30;;;;;;5054079;28;20028;-84
2021/07/23 12:28:56;;;;;;;75.45;71.85;;;29.90;45.20;;;;;;5053113;28;20051;-84